KASE/ASE METAR and TAF weather

Enter ICAO airport designator
Station Type Date Time Source
KASE METAR 2018/07/20 13:53 UTC NOAA

KASE 201353Z 12004KT 10SM CLR 18/03 A3037 RMK AO2 SLP132 T01780028 $


Station Type Date Time Source
KASE Decoded METAR 2018/07/20 13:53 UTC NOAA

ASPEN-PITKIN COUNTY AIRPORT, CO, United States (KASE) 39-14N 106-52W 2354M
Jul 20, 2018 - 09:53 AM EDT / 2018.07.20 1353 UTC
Wind: from the ESE (120 degrees) at 5 MPH (4 KT):0
Visibility: 10 mile(s):0
Sky conditions: clear
Temperature: 64.0 F (17.8 C)
Dew Point: 37.0 F (2.8 C)
Relative Humidity: 36%
Pressure (altimeter): 30.37 in. Hg (1028 hPa)
ob: KASE 201353Z 12004KT 10SM CLR 18/03 A3037 RMK AO2 SLP132 T01780028
cycle: 14

Station Type Date Time Source
KASE TAF 2018/07/20 12:30 UTC NOAA

TAF KASE 201127Z 2012/2112 20005KT P6SM FEW140 BKN200
FM201800 34006KT P6SM FEW120 SCT200
FM202200 31007KT P6SM SCT090 BKN150
FM210000 19009KT P6SM VCTS BKN090CB OVC150
FM210600 21005KT P6SM FEW110 BKN200


Example: see airport list